Nebo, Arkansas
Current Conditions -  °F | °C
As of 1:53 AM on Thursday 29 Jan 2015 (Local Time) from KPBF Reporting Station
Few Clouds Few Clouds  
Wind Chill: 57°   Ceiling: Unl
Heat Index: 57°   Visibility: 10mi
Dew Point: 41°   Wind: 14mph
Humidity: 55%   Direction: 210°SSW
Pressure: 30.06"   Gusts: 22mph
Location:  33.924°N, 91.8685°W
Report Text: KPBF 290753Z AUTO 21012G19KT 10SM FEW090 14/05 A3006 RMK AO2 SLP179 T01390050
Loading
Personal Weather Stations






























Interactive Weather Map New forecast layout! Learn more

10-Day Weather Forecast

Advertisements
Track Severe Weather on mobile